createdAt,value
2019-03-04T00:00:11.603Z,88.80
2019-03-04T00:02:40.188Z,88.90
2019-03-04T00:05:08.877Z,88.20
2019-03-04T00:07:37.495Z,88.00
2019-03-04T00:10:06.596Z,88.10
2019-03-04T00:12:35.196Z,87.90
2019-03-04T00:15:04.477Z,87.10
2019-03-04T00:17:33.415Z,87.40
2019-03-04T00:20:01.974Z,87.30
2019-03-04T00:22:30.429Z,87.70
2019-03-04T00:24:59.031Z,87.90
2019-03-04T00:27:27.683Z,87.60
2019-03-04T00:29:56.363Z,87.70
2019-03-04T00:32:24.995Z,87.40
2019-03-04T00:34:53.735Z,87.00
2019-03-04T00:37:22.321Z,87.00
2019-03-04T00:39:50.862Z,87.30
2019-03-04T00:42:19.616Z,87.60
2019-03-04T00:44:49.135Z,87.40
2019-03-04T00:47:18.405Z,87.20
2019-03-04T00:49:47.168Z,87.00
2019-03-04T00:52:16.260Z,87.30
2019-03-04T00:54:44.832Z,86.70
2019-03-04T00:57:13.552Z,87.00
2019-03-04T00:59:42.160Z,86.70
2019-03-04T01:02:10.640Z,86.30
2019-03-04T01:04:39.220Z,86.30
2019-03-04T01:07:07.967Z,86.30
2019-03-04T01:09:36.447Z,85.80
2019-03-04T01:12:05.452Z,86.00
2019-03-04T01:14:33.907Z,85.70
2019-03-04T01:17:02.401Z,85.40
2019-03-04T01:19:31.487Z,85.50
2019-03-04T01:22:00.107Z,85.30
2019-03-04T01:24:28.658Z,85.00
2019-03-04T01:26:57.312Z,85.10
2019-03-04T01:29:25.850Z,85.10
2019-03-04T01:31:54.409Z,85.20
2019-03-04T01:34:22.986Z,85.10
2019-03-04T01:36:51.618Z,86.00
2019-03-04T01:39:20.151Z,85.20
2019-03-04T01:41:48.791Z,85.30
2019-03-04T01:44:17.274Z,85.10
2019-03-04T01:46:45.918Z,85.50
2019-03-04T01:49:14.423Z,85.30
2019-03-04T01:51:42.936Z,85.80
2019-03-04T01:54:11.398Z,85.30
2019-03-04T01:56:39.986Z,85.00
2019-03-04T01:59:08.567Z,85.00
2019-03-04T02:01:37.036Z,84.50
2019-03-04T02:04:05.629Z,84.60
2019-03-04T02:06:34.211Z,85.60
2019-03-04T02:09:02.827Z,84.60
2019-03-04T02:11:31.388Z,84.80
2019-03-04T02:13:59.877Z,84.70
2019-03-04T02:16:28.494Z,84.20
2019-03-04T02:18:57.059Z,84.50
2019-03-04T02:21:25.550Z,84.50
2019-03-04T02:23:54.183Z,84.70
2019-03-04T02:26:22.879Z,84.60
2019-03-04T02:28:51.535Z,84.20
2019-03-04T02:31:20.104Z,84.20
2019-03-04T02:33:48.787Z,83.70
2019-03-04T02:36:17.292Z,83.90
2019-03-04T02:38:45.788Z,84.10
2019-03-04T02:41:14.402Z,84.00
2019-03-04T02:43:42.908Z,83.90
2019-03-04T02:46:11.498Z,83.70
2019-03-04T02:48:40.097Z,83.80
2019-03-04T02:51:08.626Z,83.50
2019-03-04T02:53:37.207Z,83.50
2019-03-04T02:56:05.817Z,84.00
2019-03-04T02:58:34.625Z,83.50
2019-03-04T03:01:03.945Z,83.40
2019-03-04T03:03:32.537Z,82.70
2019-03-04T03:06:01.111Z,82.80
2019-03-04T03:08:29.659Z,82.50
2019-03-04T03:10:58.173Z,82.60
2019-03-04T03:13:26.712Z,82.60
2019-03-04T03:15:55.301Z,82.60
2019-03-04T03:18:23.882Z,82.60
2019-03-04T03:20:52.352Z,82.80
2019-03-04T03:23:20.940Z,82.90
2019-03-04T03:25:49.514Z,82.70
2019-03-04T03:28:18.167Z,82.60
2019-03-04T03:30:46.775Z,82.90
2019-03-04T03:33:15.277Z,82.70
2019-03-04T03:35:44.051Z,82.80
2019-03-04T03:38:12.629Z,82.90
2019-03-04T03:40:41.257Z,82.80
2019-03-04T03:43:09.874Z,82.90
2019-03-04T03:45:38.385Z,82.30
2019-03-04T03:48:07.022Z,82.40
2019-03-04T03:50:35.585Z,82.10
2019-03-04T03:53:04.121Z,82.30
2019-03-04T03:55:32.611Z,82.30
2019-03-04T03:58:01.089Z,82.40
2019-03-04T04:00:29.657Z,82.40
2019-03-04T04:02:58.200Z,82.70
2019-03-04T04:05:26.782Z,82.90
2019-03-04T04:07:55.317Z,83.00
2019-03-04T04:10:24.820Z,83.00
2019-03-04T04:12:53.347Z,82.60
2019-03-04T04:15:22.069Z,82.90
2019-03-04T04:17:50.618Z,83.00
2019-03-04T04:20:19.286Z,82.70
2019-03-04T04:22:47.802Z,82.80
2019-03-04T04:25:16.472Z,82.70
2019-03-04T04:27:45.052Z,82.80
2019-03-04T04:30:17.463Z,83.00
2019-03-04T04:32:49.092Z,83.00
2019-03-04T04:35:17.624Z,82.80
2019-03-04T04:37:46.085Z,82.40
2019-03-04T04:40:15.315Z,82.10
2019-03-04T04:42:44.029Z,81.90
2019-03-04T04:45:13.003Z,82.50
2019-03-04T04:47:44.630Z,82.00
2019-03-04T04:50:19.204Z,81.60
2019-03-04T04:52:47.759Z,81.40
2019-03-04T04:55:16.374Z,80.60
2019-03-04T04:57:45.018Z,80.60
2019-03-04T05:00:33.752Z,80.70
2019-03-04T05:03:02.354Z,79.70
2019-03-04T05:05:30.849Z,79.50
2019-03-04T05:07:59.387Z,78.80
2019-03-04T05:10:27.890Z,78.30
2019-03-04T05:12:56.420Z,78.30
2019-03-04T05:15:24.921Z,78.00
2019-03-04T05:17:53.478Z,77.60
2019-03-04T05:20:26.548Z,77.30
2019-03-04T05:22:55.284Z,77.30
2019-03-04T05:25:23.849Z,77.30
2019-03-04T05:27:52.490Z,76.60
2019-03-04T05:30:22.840Z,75.80
2019-03-04T05:32:51.329Z,75.10
2019-03-04T05:35:19.943Z,75.60
2019-03-04T05:37:48.530Z,75.00
2019-03-04T05:40:19.214Z,74.50
2019-03-04T05:42:48.215Z,74.70
2019-03-04T05:45:17.687Z,75.50
2019-03-04T05:47:46.337Z,74.50
2019-03-04T05:50:17.818Z,74.40
2019-03-04T05:52:46.419Z,74.10
2019-03-04T05:55:15.718Z,73.80
2019-03-04T05:57:44.383Z,73.10
2019-03-04T06:00:23.857Z,73.00
2019-03-04T06:02:57.082Z,72.80
2019-03-04T06:05:25.651Z,72.00
2019-03-04T06:08:04.625Z,72.60
2019-03-04T06:10:33.180Z,72.00
2019-03-04T06:13:01.732Z,71.70
2019-03-04T06:15:30.225Z,71.20
2019-03-04T06:17:58.832Z,70.40
2019-03-04T06:20:27.447Z,69.00
2019-03-04T06:22:56.988Z,69.10
2019-03-04T06:25:29.713Z,68.90
2019-03-04T06:27:58.582Z,68.70
2019-03-04T06:30:29.999Z,68.70
2019-03-04T06:32:58.529Z,68.40
2019-03-04T06:35:27.360Z,69.00
2019-03-04T06:37:55.919Z,69.30
2019-03-04T06:40:24.390Z,68.80
2019-03-04T06:42:52.957Z,68.40
2019-03-04T06:45:21.611Z,68.70
2019-03-04T06:47:50.186Z,69.30
2019-03-04T06:50:49.790Z,68.80
2019-03-04T06:53:22.370Z,68.60
2019-03-04T06:55:59.769Z,69.20
2019-03-04T06:58:28.407Z,68.60
2019-03-04T07:01:00.221Z,70.00
2019-03-04T07:03:28.854Z,70.60
2019-03-04T07:05:57.391Z,70.50
2019-03-04T07:08:41.208Z,69.60
2019-03-04T07:11:09.707Z,69.60
2019-03-04T07:13:38.184Z,69.80
2019-03-04T07:16:06.744Z,70.90
2019-03-04T07:18:36.765Z,70.10
2019-03-04T07:21:05.214Z,68.60
2019-03-04T07:23:33.699Z,69.80
2019-03-04T07:26:02.242Z,76.20
2019-03-04T07:28:30.728Z,87.30
2019-03-04T07:30:59.189Z,92.70
2019-03-04T07:33:27.741Z,92.70
2019-03-04T07:35:56.196Z,92.60
2019-03-04T07:38:27.809Z,92.10
2019-03-04T07:40:56.371Z,91.40
2019-03-04T07:43:24.898Z,91.10
2019-03-04T07:45:53.369Z,90.60
2019-03-04T07:48:21.859Z,89.80
2019-03-04T07:50:50.306Z,89.80
2019-03-04T07:53:19.198Z,90.10
2019-03-04T07:55:47.832Z,88.80
2019-03-04T07:58:16.392Z,87.80
2019-03-04T08:00:44.962Z,87.00
2019-03-04T08:03:13.460Z,85.30
2019-03-04T08:05:42.191Z,84.30
2019-03-04T08:08:12.874Z,85.60
2019-03-04T08:10:53.443Z,85.10
2019-03-04T08:13:31.210Z,86.10
2019-03-04T08:16:00.040Z,84.40
2019-03-04T08:18:28.633Z,83.70
2019-03-04T08:20:57.156Z,83.60
2019-03-04T08:23:25.731Z,84.00
2019-03-04T08:25:54.354Z,83.90
2019-03-04T08:28:22.924Z,82.90
2019-03-04T08:30:51.567Z,82.70
2019-03-04T08:33:20.039Z,82.30
2019-03-04T08:35:48.657Z,82.40
2019-03-04T08:38:17.157Z,82.70
2019-03-04T08:40:45.629Z,82.20
2019-03-04T08:43:14.180Z,81.80
2019-03-04T08:45:43.080Z,82.40
2019-03-04T08:48:11.606Z,82.70
2019-03-04T08:50:40.392Z,82.50
2019-03-04T08:53:08.955Z,83.40
2019-03-04T08:55:37.435Z,83.00
2019-03-04T08:58:05.998Z,83.30
2019-03-04T09:00:35.185Z,83.70
2019-03-04T09:03:03.728Z,83.00
2019-03-04T09:05:32.276Z,82.40
2019-03-04T09:08:00.798Z,80.60
2019-03-04T09:10:34.508Z,80.70
2019-03-04T09:13:03.150Z,80.60
2019-03-04T09:15:31.911Z,80.50
2019-03-04T09:18:00.457Z,80.30
2019-03-04T09:20:28.983Z,80.90
2019-03-04T09:22:57.537Z,80.10
2019-03-04T09:25:30.676Z,80.10
2019-03-04T09:27:59.307Z,78.80
2019-03-04T09:30:27.967Z,79.30
2019-03-04T09:32:56.590Z,79.30
2019-03-04T09:35:25.682Z,77.70
2019-03-04T09:37:54.243Z,77.30
2019-03-04T09:40:25.865Z,77.00
2019-03-04T09:42:54.390Z,76.40
2019-03-04T09:45:22.898Z,75.10
2019-03-04T09:47:51.364Z,76.10
2019-03-04T09:50:27.984Z,76.80
2019-03-04T09:52:56.519Z,77.10
2019-03-04T09:55:25.282Z,75.90
2019-03-04T09:57:54.002Z,75.90
2019-03-04T10:00:33.553Z,74.50
2019-03-04T10:03:33.314Z,75.10
2019-03-04T10:06:24.755Z,73.10
2019-03-04T10:09:08.175Z,71.50
2019-03-04T10:11:51.725Z,70.50
2019-03-04T10:14:42.630Z,70.40
2019-03-04T10:17:19.742Z,72.30
2019-03-04T10:20:24.906Z,72.50
2019-03-04T10:23:08.463Z,73.30
2019-03-04T10:25:59.662Z,71.60
2019-03-04T10:28:39.492Z,72.10
2019-03-04T10:31:16.693Z,70.90
2019-03-04T10:33:51.012Z,70.20
2019-03-04T10:36:31.829Z,69.20
2019-03-04T10:39:30.571Z,69.40
2019-03-04T10:42:36.875Z,67.70
2019-03-04T10:45:35.813Z,66.90
2019-03-04T10:48:04.553Z,67.60
2019-03-04T10:50:33.126Z,68.50
2019-03-04T10:53:01.626Z,69.80
2019-03-04T10:55:30.094Z,72.50
2019-03-04T10:57:58.631Z,75.40
2019-03-04T11:00:27.093Z,83.20
2019-03-04T11:02:55.629Z,89.30
2019-03-04T11:05:24.251Z,90.50
2019-03-04T11:07:52.735Z,90.80
2019-03-04T11:10:21.265Z,90.50
2019-03-04T11:12:49.745Z,90.10
2019-03-04T11:15:21.274Z,89.30
2019-03-04T11:17:49.841Z,89.70
2019-03-04T11:20:18.554Z,88.80
2019-03-04T11:22:47.094Z,88.40
2019-03-04T11:25:16.586Z,89.30
2019-03-04T11:27:45.216Z,86.00
2019-03-04T11:30:20.730Z,86.20
2019-03-04T11:32:49.182Z,84.80
2019-03-04T11:35:17.939Z,83.80
2019-03-04T11:37:46.405Z,83.80
2019-03-04T11:40:36.742Z,83.40
2019-03-04T11:43:05.341Z,83.50
2019-03-04T11:45:34.106Z,82.70
2019-03-04T11:48:02.573Z,83.00
2019-03-04T11:50:31.081Z,81.80
2019-03-04T11:52:59.650Z,82.70
2019-03-04T11:55:34.165Z,84.50
2019-03-04T11:58:02.618Z,85.10
2019-03-04T12:00:39.351Z,88.30
2019-03-04T12:03:07.894Z,88.60
2019-03-04T12:05:36.351Z,92.00
2019-03-04T12:08:05.174Z,94.40
2019-03-04T12:10:33.737Z,95.10
2019-03-04T12:13:02.282Z,95.10
2019-03-04T12:15:30.758Z,95.10
2019-03-04T12:17:59.394Z,94.70
2019-03-04T12:20:27.884Z,94.70
2019-03-04T12:22:56.447Z,94.70
2019-03-04T12:25:25.194Z,94.50
2019-03-04T12:27:53.757Z,94.20
2019-03-04T12:30:24.446Z,94.20
2019-03-04T12:32:53.820Z,94.10
2019-03-04T12:35:22.549Z,94.00
2019-03-04T12:37:51.245Z,93.70
2019-03-04T12:40:23.758Z,93.70
2019-03-04T12:42:52.293Z,94.00
2019-03-04T12:45:22.877Z,93.70
2019-03-04T12:47:51.567Z,94.00
2019-03-04T12:50:27.498Z,93.70
2019-03-04T12:52:56.922Z,94.00
2019-03-04T12:55:44.712Z,93.60
2019-03-04T12:58:13.345Z,93.40
2019-03-04T13:00:42.016Z,93.20
2019-03-04T13:03:19.190Z,93.00
2019-03-04T13:05:47.733Z,92.90
2019-03-04T13:08:16.352Z,92.50
2019-03-04T13:10:45.063Z,92.40
2019-03-04T13:13:13.784Z,92.80
2019-03-04T13:15:42.470Z,92.60
2019-03-04T13:18:12.702Z,92.70
2019-03-04T13:20:41.386Z,92.40
2019-03-04T13:23:10.034Z,91.40
2019-03-04T13:25:38.641Z,91.80
2019-03-04T13:28:08.544Z,90.70
2019-03-04T13:30:39.428Z,90.60
2019-03-04T13:33:08.011Z,90.60
2019-03-04T13:35:43.610Z,90.80
2019-03-04T13:38:12.227Z,90.30
2019-03-04T13:40:40.948Z,90.50
2019-03-04T13:43:09.483Z,90.30
2019-03-04T13:45:38.551Z,89.50
2019-03-04T13:48:07.125Z,88.00
2019-03-04T13:50:37.316Z,87.60
2019-03-04T13:53:06.372Z,87.50
2019-03-04T13:55:34.983Z,87.30
2019-03-04T13:58:03.730Z,87.30
2019-03-04T14:00:37.834Z,86.60
2019-03-04T14:03:06.453Z,86.20
2019-03-04T14:05:34.944Z,84.90
2019-03-04T14:08:03.599Z,84.90
2019-03-04T14:10:34.725Z,85.20
2019-03-04T14:13:03.236Z,84.50
2019-03-04T14:15:37.726Z,85.20
2019-03-04T14:18:06.541Z,83.80
2019-03-04T14:20:35.158Z,82.40
2019-03-04T14:23:04.101Z,82.80
2019-03-04T14:25:32.728Z,80.70
2019-03-04T14:28:01.205Z,81.00
2019-03-04T14:30:29.900Z,80.50
2019-03-04T14:32:58.453Z,79.80
2019-03-04T14:35:26.911Z,80.00
2019-03-04T14:37:55.467Z,80.70
2019-03-04T14:40:24.231Z,81.00
2019-03-04T14:42:55.008Z,80.30
2019-03-04T14:45:26.694Z,80.00
2019-03-04T14:47:55.559Z,79.50
2019-03-04T14:50:24.334Z,80.30
2019-03-04T14:52:52.878Z,80.50
2019-03-04T14:55:25.642Z,79.40
2019-03-04T14:57:54.466Z,79.00
2019-03-04T15:00:32.937Z,78.50
2019-03-04T15:03:01.434Z,78.30
2019-03-04T15:05:29.971Z,78.50
2019-03-04T15:07:58.699Z,78.80
2019-03-04T15:10:27.297Z,78.60
2019-03-04T15:12:55.870Z,79.00
2019-03-04T15:15:26.566Z,78.90
2019-03-04T15:17:55.048Z,78.80
2019-03-04T15:20:30.865Z,79.40
2019-03-04T15:22:59.527Z,78.80
2019-03-04T15:25:32.940Z,77.20
2019-03-04T15:28:20.570Z,77.10
2019-03-04T15:30:54.962Z,77.50
2019-03-04T15:33:23.582Z,77.10
2019-03-04T15:35:52.145Z,76.90
2019-03-04T15:38:20.750Z,77.30
2019-03-04T15:40:49.285Z,76.40
2019-03-04T15:43:18.013Z,77.10
2019-03-04T15:45:48.671Z,77.60
2019-03-04T15:48:18.756Z,77.50
2019-03-04T15:50:47.301Z,77.10
2019-03-04T15:53:16.110Z,77.20
2019-03-04T15:55:44.640Z,76.40
2019-03-04T15:58:13.330Z,75.80
2019-03-04T16:00:42.114Z,75.30
2019-03-04T16:03:10.662Z,74.90
2019-03-04T16:05:39.300Z,75.00
2019-03-04T16:08:08.258Z,74.80
2019-03-04T16:10:37.810Z,74.30
2019-03-04T16:13:07.931Z,74.80
2019-03-04T16:15:39.529Z,75.20
2019-03-04T16:18:08.222Z,75.40
2019-03-04T16:20:36.774Z,75.40
2019-03-04T16:23:05.481Z,75.50
2019-03-04T16:25:34.190Z,76.30
2019-03-04T16:28:14.818Z,75.80
2019-03-04T16:30:44.039Z,76.10
2019-03-04T16:33:12.720Z,76.20
2019-03-04T16:35:41.428Z,76.70
2019-03-04T16:38:10.050Z,76.90
2019-03-04T16:40:38.613Z,76.80
2019-03-04T16:43:07.165Z,77.30
2019-03-04T16:45:35.754Z,78.10
2019-03-04T16:48:04.592Z,78.30
2019-03-04T16:50:44.463Z,77.70
2019-03-04T16:53:19.021Z,77.80
2019-03-04T16:55:47.579Z,77.80
2019-03-04T16:58:16.027Z,78.10
2019-03-04T17:00:45.230Z,77.20
2019-03-04T17:03:13.782Z,77.20
2019-03-04T17:05:42.465Z,77.30
2019-03-04T17:08:11.004Z,77.80
2019-03-04T17:10:39.564Z,78.70
2019-03-04T17:13:08.134Z,78.70
2019-03-04T17:15:36.757Z,79.10
2019-03-04T17:18:05.452Z,78.90
2019-03-04T17:20:34.046Z,79.30
2019-03-04T17:23:02.637Z,79.60
2019-03-04T17:25:31.120Z,79.70
2019-03-04T17:27:59.607Z,79.60
2019-03-04T17:30:28.265Z,79.50
2019-03-04T17:32:58.421Z,79.10
2019-03-04T17:35:26.978Z,79.40
2019-03-04T17:37:55.489Z,79.10
2019-03-04T17:40:28.909Z,78.90
2019-03-04T17:42:57.526Z,78.80
2019-03-04T17:45:26.967Z,78.70
2019-03-04T17:47:55.642Z,79.00
2019-03-04T17:50:44.789Z,78.40
2019-03-04T17:53:14.578Z,78.60
2019-03-04T17:55:44.500Z,79.00
2019-03-04T17:58:13.170Z,78.90
2019-03-04T18:00:55.494Z,78.90
2019-03-04T18:03:24.021Z,78.80
2019-03-04T18:05:53.541Z,78.80
2019-03-04T18:08:22.076Z,78.60
2019-03-04T18:10:50.854Z,78.60
2019-03-04T18:13:19.324Z,78.60
2019-03-04T18:15:48.010Z,78.40
2019-03-04T18:18:16.476Z,78.50
2019-03-04T18:20:45.095Z,78.10
2019-03-04T18:23:13.624Z,78.20
2019-03-04T18:25:50.914Z,78.30
2019-03-04T18:28:25.128Z,78.50
2019-03-04T18:30:59.378Z,78.10
2019-03-04T18:33:53.622Z,78.50
2019-03-04T18:36:40.450Z,78.60
2019-03-04T18:39:24.014Z,78.80
2019-03-04T18:42:07.353Z,78.60
2019-03-04T18:44:41.842Z,78.60
2019-03-04T18:47:15.991Z,78.80
2019-03-04T18:49:44.447Z,78.80
2019-03-04T18:52:12.912Z,78.70
2019-03-04T18:54:41.474Z,78.80
2019-03-04T18:57:09.918Z,79.00
2019-03-04T18:59:38.640Z,79.20
2019-03-04T19:02:07.239Z,79.20
2019-03-04T19:04:35.726Z,79.30
2019-03-04T19:07:04.310Z,79.10
2019-03-04T19:09:32.805Z,79.40
2019-03-04T19:12:01.394Z,79.10
2019-03-04T19:14:29.988Z,79.20
2019-03-04T19:16:58.615Z,79.50
2019-03-04T19:19:27.214Z,79.70
2019-03-04T19:21:55.771Z,79.80
2019-03-04T19:24:24.229Z,79.60
2019-03-04T19:26:52.714Z,79.80
2019-03-04T19:29:21.166Z,80.30
2019-03-04T19:31:49.877Z,80.30
2019-03-04T19:34:18.409Z,80.10
2019-03-04T19:36:46.965Z,80.40
2019-03-04T19:39:15.553Z,80.40
2019-03-04T19:41:44.071Z,80.10
2019-03-04T19:44:12.546Z,80.50
2019-03-04T19:46:41.095Z,80.60
2019-03-04T19:49:09.624Z,80.40
2019-03-04T19:51:38.203Z,80.30
2019-03-04T19:54:06.793Z,80.50
2019-03-04T19:56:35.243Z,80.40
2019-03-04T19:59:03.875Z,80.30
2019-03-04T20:01:32.394Z,80.80
2019-03-04T20:04:01.026Z,80.80
2019-03-04T20:06:29.590Z,81.00
2019-03-04T20:08:58.361Z,81.10
2019-03-04T20:11:27.024Z,81.80
2019-03-04T20:13:56.406Z,81.00
2019-03-04T20:16:25.128Z,81.00
2019-03-04T20:18:53.646Z,80.80
2019-03-04T20:21:22.143Z,81.00
2019-03-04T20:23:50.669Z,80.80
2019-03-04T20:26:19.158Z,80.70
2019-03-04T20:28:47.639Z,80.30
2019-03-04T20:31:16.242Z,80.00
2019-03-04T20:33:45.148Z,79.80
2019-03-04T20:36:14.059Z,79.50
2019-03-04T20:38:45.424Z,79.60
2019-03-04T20:41:14.099Z,79.10
2019-03-04T20:43:42.730Z,79.20
2019-03-04T20:46:11.180Z,79.10
2019-03-04T20:48:40.042Z,79.30
2019-03-04T20:51:08.566Z,79.20
2019-03-04T20:53:37.177Z,78.90
2019-03-04T20:56:05.879Z,79.00
2019-03-04T20:58:34.406Z,79.10
2019-03-04T21:01:03.021Z,78.90
2019-03-04T21:03:34.940Z,78.70
2019-03-04T21:06:01.986Z,78.50
2019-03-04T21:08:30.436Z,78.30
2019-03-04T21:10:59.111Z,78.30
2019-03-04T21:13:35.228Z,78.20
2019-03-04T21:15:58.021Z,78.40
2019-03-04T21:18:26.833Z,78.50
2019-03-04T21:20:55.313Z,78.40
2019-03-04T21:23:23.932Z,78.40
2019-03-04T21:26:01.454Z,78.50
2019-03-04T21:28:53.718Z,78.20
2019-03-04T21:31:40.710Z,78.10
2019-03-04T21:34:18.158Z,78.40
2019-03-04T21:36:55.514Z,77.90
2019-03-04T21:39:39.269Z,78.10
2019-03-04T21:42:10.916Z,78.20
2019-03-04T21:45:01.846Z,78.20
2019-03-04T21:47:33.509Z,78.30
2019-03-04T21:50:02.178Z,78.50
2019-03-04T21:52:33.750Z,78.50
2019-03-04T21:55:04.787Z,78.60
2019-03-04T21:57:37.343Z,78.30
2019-03-04T22:00:22.820Z,78.40
2019-03-04T22:03:06.002Z,78.50
2019-03-04T22:05:34.667Z,78.80
2019-03-04T22:08:03.244Z,79.30
2019-03-04T22:10:32.310Z,79.10
2019-03-04T22:13:01.340Z,79.10
2019-03-04T22:15:30.030Z,79.20
2019-03-04T22:17:58.546Z,79.40
2019-03-04T22:20:27.177Z,79.70
2019-03-04T22:22:55.711Z,79.90
2019-03-04T22:25:24.260Z,80.20
2019-03-04T22:27:52.894Z,80.40
2019-03-04T22:30:21.481Z,80.40
2019-03-04T22:32:50.083Z,80.40
2019-03-04T22:35:19.208Z,80.70
2019-03-04T22:37:47.876Z,81.60
2019-03-04T22:40:19.412Z,81.30
2019-03-04T22:42:48.113Z,81.70
2019-03-04T22:45:18.473Z,82.20
2019-03-04T22:47:48.014Z,82.50
2019-03-04T22:50:18.546Z,82.40
2019-03-04T22:52:47.069Z,82.80
2019-03-04T22:55:18.619Z,83.00
2019-03-04T22:57:47.118Z,82.90
2019-03-04T23:00:53.803Z,83.40
2019-03-04T23:03:24.311Z,84.50
2019-03-04T23:06:01.722Z,87.90
2019-03-04T23:08:30.181Z,89.80
2019-03-04T23:10:58.733Z,90.50
2019-03-04T23:13:36.202Z,90.90
2019-03-04T23:16:05.617Z,91.40
2019-03-04T23:18:34.094Z,91.70
2019-03-04T23:21:02.573Z,92.00
2019-03-04T23:23:31.206Z,92.30
2019-03-04T23:25:59.671Z,92.60
2019-03-04T23:28:28.224Z,92.90
2019-03-04T23:30:56.788Z,93.10
2019-03-04T23:33:25.322Z,93.40
2019-03-04T23:35:53.865Z,93.30
2019-03-04T23:38:22.436Z,93.30
2019-03-04T23:40:51.102Z,93.40
2019-03-04T23:43:19.659Z,93.30
2019-03-04T23:45:48.177Z,93.60
2019-03-04T23:48:17.662Z,93.80
2019-03-04T23:50:46.160Z,94.50
2019-03-04T23:53:14.723Z,94.60
2019-03-04T23:55:43.243Z,94.80
2019-03-04T23:58:11.714Z,94.90
